Time;durP1;ratioP1;P1;durP2;ratioP2;P2;SDS_P1;SDS_P2;PMS_P1;PMS_P2;Temp;Humidity;BMP_temperature;BMP_pressure;BME280_temperature;BME280_humidity;BME280_pressure;Samples;Min_cycle;Max_cycle;Signal;HPM_P1;HPM_P2
2023/07/23 00:00:42;;;;;;;5.40;4.40;;;15.80;99.90;;;;;;4990330;28;20448;-65
2023/07/23 00:03:09;;;;;;;5.30;4.80;;;15.80;99.90;;;;;;4990018;28;20504;-64
2023/07/23 00:05:36;;;;;;;6.07;5.47;;;15.90;99.90;;;;;;4990276;28;20485;-64
2023/07/23 00:08:04;;;;;;;5.90;4.73;;;15.90;99.90;;;;;;4997301;28;20459;-65
2023/07/23 00:10:31;;;;;;;5.10;4.60;;;16.00;99.90;;;;;;5006719;28;20494;-65
2023/07/23 00:12:58;;;;;;;5.20;4.80;;;16.00;99.90;;;;;;5008413;28;20979;-65
2023/07/23 00:15:25;;;;;;;4.20;3.90;;;16.00;99.90;;;;;;5009453;28;20546;-64
2023/07/23 00:17:52;;;;;;;6.03;5.30;;;16.00;99.90;;;;;;5008703;28;20467;-64
2023/07/23 00:20:19;;;;;;;6.37;4.37;;;16.00;99.90;;;;;;5009035;28;20467;-65
2023/07/23 00:22:46;;;;;;;4.00;3.70;;;16.10;99.90;;;;;;5007702;28;20502;-66
2023/07/23 00:25:14;;;;;;;5.53;4.77;;;16.10;99.90;;;;;;5009276;28;20544;-65
2023/07/23 00:27:41;;;;;;;6.80;4.47;;;16.10;99.90;;;;;;5008648;28;20555;-64
2023/07/23 00:30:08;;;;;;;4.00;3.70;;;16.10;99.90;;;;;;5009355;28;20457;-64
2023/07/23 00:32:35;;;;;;;4.93;4.40;;;16.10;99.90;;;;;;5009119;28;20471;-64
2023/07/23 00:35:01;;;;;;;4.67;4.27;;;16.20;99.90;;;;;;5009089;28;20551;-64
2023/07/23 00:37:29;;;;;;;4.20;3.80;;;16.20;99.90;;;;;;5008229;28;20488;-65
2023/07/23 00:39:56;;;;;;;6.10;5.60;;;16.20;99.90;;;;;;5008998;28;20464;-64
2023/07/23 00:42:24;;;;;;;4.77;4.13;;;16.20;99.90;;;;;;5008993;28;20496;-65
2023/07/23 00:44:51;;;;;;;4.90;4.40;;;16.30;99.90;;;;;;5009084;28;20462;-64
2023/07/23 00:47:18;;;;;;;5.07;4.67;;;16.30;99.90;;;;;;5008214;28;20543;-64
2023/07/23 00:49:45;;;;;;;4.43;4.07;;;16.30;99.90;;;;;;5008683;28;20462;-65
2023/07/23 00:52:13;;;;;;;5.77;4.77;;;16.30;99.90;;;;;;5009162;28;20452;-65
2023/07/23 00:54:40;;;;;;;5.47;5.00;;;16.30;99.90;;;;;;5009125;28;20958;-65
2023/07/23 00:57:08;;;;;;;4.93;4.00;;;16.40;99.90;;;;;;5008305;28;20456;-65
2023/07/23 00:59:38;;;;;;;6.90;5.40;;;16.40;99.90;;;;;;5008993;28;20462;-65
2023/07/23 01:02:05;;;;;;;5.57;4.93;;;16.40;99.90;;;;;;5008643;28;20491;-64
2023/07/23 01:04:34;;;;;;;5.10;4.60;;;16.40;99.90;;;;;;5008599;28;20493;-65
2023/07/23 01:07:03;;;;;;;4.97;4.47;;;16.50;99.90;;;;;;5008127;28;20540;-64
2023/07/23 01:09:31;;;;;;;4.57;4.13;;;16.50;99.90;;;;;;5008788;28;20488;-64
2023/07/23 01:11:59;;;;;;;4.50;4.13;;;16.50;99.90;;;;;;5008746;28;20479;-64
2023/07/23 01:14:26;;;;;;;4.97;4.50;;;16.50;99.90;;;;;;5008543;28;20467;-65
2023/07/23 01:16:56;;;;;;;5.67;4.77;;;16.50;99.90;;;;;;5007617;28;20542;-65
2023/07/23 01:19:26;;;;;;;5.20;4.80;;;16.50;99.90;;;;;;5008068;28;20466;-65
2023/07/23 01:21:58;;;;;;;4.70;4.17;;;16.50;99.90;;;;;;5008660;28;20586;-64
2023/07/23 01:24:25;;;;;;;5.17;4.67;;;16.40;99.90;;;;;;5006405;28;20482;-65
2023/07/23 01:26:52;;;;;;;4.60;4.30;;;16.40;99.90;;;;;;5007607;28;20569;-64
2023/07/23 01:29:19;;;;;;;6.73;4.10;;;16.40;99.90;;;;;;5008471;28;20867;-66
2023/07/23 01:31:46;;;;;;;5.23;4.83;;;16.40;99.90;;;;;;5008391;28;20648;-65
2023/07/23 01:34:13;;;;;;;4.30;3.33;;;16.40;99.90;;;;;;4999518;28;20868;-64
2023/07/23 01:36:41;;;;;;;4.77;4.37;;;16.40;99.90;;;;;;4997450;28;20453;-65
2023/07/23 01:39:09;;;;;;;5.03;4.50;;;16.40;99.90;;;;;;4999672;28;20463;-65
2023/07/23 01:41:36;;;;;;;5.20;4.80;;;16.30;99.90;;;;;;4998528;28;20464;-65
2023/07/23 01:44:03;;;;;;;4.40;4.00;;;16.30;99.90;;;;;;4999737;28;20562;-65
2023/07/23 01:46:30;;;;;;;5.30;4.80;;;16.30;99.90;;;;;;4996072;28;20930;-64
2023/07/23 01:48:57;;;;;;;8.03;5.10;;;16.30;99.90;;;;;;5003710;28;20475;-65
2023/07/23 01:51:24;;;;;;;4.03;3.77;;;16.20;99.90;;;;;;4999757;28;20455;-64
2023/07/23 01:53:50;;;;;;;4.90;4.50;;;16.20;99.90;;;;;;5008124;28;20562;-65
2023/07/23 01:56:19;;;;;;;5.00;4.50;;;16.20;99.90;;;;;;5007264;28;20534;-64
2023/07/23 01:58:45;;;;;;;6.30;4.50;;;16.20;99.90;;;;;;5008046;28;20876;-65
2023/07/23 02:01:12;;;;;;;5.60;5.10;;;16.10;99.90;;;;;;5008006;28;20992;-65
2023/07/23 02:03:39;;;;;;;4.97;4.50;;;16.10;99.90;;;;;;5005118;28;21768;-65
2023/07/23 02:06:06;;;;;;;5.20;4.80;;;16.00;99.90;;;;;;4998949;28;20548;-64
2023/07/23 02:08:33;;;;;;;5.67;4.80;;;16.00;99.90;;;;;;5008015;28;20462;-65
2023/07/23 02:11:01;;;;;;;9.40;5.87;;;16.00;99.90;;;;;;5007891;28;20492;-64
2023/07/23 02:13:29;;;;;;;5.00;4.60;;;16.00;99.90;;;;;;5008066;28;20505;-64
2023/07/23 02:15:56;;;;;;;5.13;4.30;;;15.90;99.90;;;;;;5007565;28;20462;-64
2023/07/23 02:18:23;;;;;;;4.50;4.10;;;15.90;99.90;;;;;;5007870;28;20484;-64
2023/07/23 02:20:50;;;;;;;4.50;4.20;;;15.90;99.90;;;;;;5007832;28;20457;-65
2023/07/23 02:23:18;;;;;;;5.07;4.57;;;15.80;99.90;;;;;;5006845;28;20531;-65
2023/07/23 02:25:45;;;;;;;5.63;4.80;;;15.80;99.90;;;;;;5007821;28;20553;-65
2023/07/23 02:28:12;;;;;;;5.03;4.60;;;15.80;99.90;;;;;;5007270;28;20456;-65
2023/07/23 02:30:40;;;;;;;4.60;4.20;;;15.80;99.90;;;;;;5007790;28;20474;-66
2023/07/23 02:33:07;;;;;;;3.47;3.17;;;15.80;99.90;;;;;;5007608;28;20480;-65
2023/07/23 02:35:36;;;;;;;4.60;4.30;;;15.70;99.90;;;;;;5005045;28;20835;-64
2023/07/23 02:38:03;;;;;;;4.00;3.73;;;15.70;99.90;;;;;;5002341;28;20508;-65
2023/07/23 02:40:33;;;;;;;5.40;4.67;;;15.70;99.90;;;;;;5011404;28;20486;-64
2023/07/23 02:43:00;;;;;;;4.83;4.13;;;15.60;99.90;;;;;;5011296;28;20496;-64
2023/07/23 02:45:28;;;;;;;4.83;4.43;;;15.50;99.90;;;;;;5011249;28;20469;-65
2023/07/23 02:47:56;;;;;;;4.77;4.33;;;15.50;99.90;;;;;;5010440;28;20456;-64
2023/07/23 02:50:23;;;;;;;4.77;4.37;;;15.50;99.90;;;;;;5011303;28;20579;-65
2023/07/23 02:52:50;;;;;;;4.63;4.23;;;15.40;99.90;;;;;;5010994;28;20480;-65
2023/07/23 02:55:17;;;;;;;7.17;5.07;;;15.40;99.90;;;;;;5011122;28;20448;-64
2023/07/23 02:57:44;;;;;;;4.00;3.60;;;15.30;99.90;;;;;;5010305;28;20453;-65
2023/07/23 03:00:12;;;;;;;4.17;3.80;;;15.30;99.90;;;;;;5010914;28;20478;-64
2023/07/23 03:02:39;;;;;;;4.80;4.20;;;15.30;99.90;;;;;;5008130;28;20518;-65
2023/07/23 03:05:08;;;;;;;7.30;4.43;;;15.20;99.90;;;;;;5010969;28;20544;-65
2023/07/23 03:07:36;;;;;;;4.83;4.43;;;15.10;99.90;;;;;;5010164;28;20831;-65
2023/07/23 03:10:03;;;;;;;5.87;4.10;;;15.10;99.90;;;;;;5010713;28;20453;-63
2023/07/23 03:12:30;;;;;;;4.70;4.30;;;15.10;99.90;;;;;;5010980;28;20562;-64
2023/07/23 03:14:57;;;;;;;4.03;3.73;;;15.10;99.90;;;;;;5010696;28;21046;-64
2023/07/23 03:17:24;;;;;;;4.40;4.00;;;15.00;99.90;;;;;;5010153;28;20456;-65
2023/07/23 03:19:51;;;;;;;4.97;4.57;;;15.00;99.90;;;;;;5010925;28;20454;-64
2023/07/23 03:22:19;;;;;;;5.10;3.97;;;14.90;99.90;;;;;;5010497;28;20579;-64
2023/07/23 03:24:46;;;;;;;4.50;4.10;;;14.80;99.90;;;;;;5009326;28;20549;-65
2023/07/23 03:27:13;;;;;;;4.50;4.10;;;14.80;99.90;;;;;;5009653;28;20463;-65
2023/07/23 03:29:40;;;;;;;4.77;4.27;;;14.80;99.90;;;;;;5010671;28;20494;-66
2023/07/23 03:32:08;;;;;;;4.23;3.83;;;14.70;99.90;;;;;;5010296;28;21250;-65
2023/07/23 03:34:35;;;;;;;4.60;4.20;;;14.70;99.90;;;;;;5010292;28;20460;-65
2023/07/23 03:37:02;;;;;;;4.50;4.10;;;14.60;99.90;;;;;;5006039;28;20492;-65
2023/07/23 03:39:30;;;;;;;4.40;4.10;;;14.60;99.90;;;;;;4998441;28;20459;-64
2023/07/23 03:41:57;;;;;;;6.60;4.63;;;14.60;99.90;;;;;;5010290;28;20539;-64
2023/07/23 03:44:24;;;;;;;4.83;4.40;;;14.60;99.90;;;;;;5010176;28;20562;-64
2023/07/23 03:47:04;;;;;;;4.37;3.97;;;14.50;99.90;;;;;;5009344;28;20566;-64
2023/07/23 03:49:31;;;;;;;3.80;3.50;;;14.40;99.90;;;;;;5010074;28;20455;-64
2023/07/23 03:51:59;;;;;;;6.27;3.80;;;14.40;99.90;;;;;;5009646;28;20461;-65
2023/07/23 03:54:26;;;;;;;4.47;4.07;;;14.40;99.90;;;;;;5010056;28;20485;-65
2023/07/23 03:56:55;;;;;;;5.23;4.00;;;14.40;99.90;;;;;;5008673;28;20544;-64
2023/07/23 03:59:22;;;;;;;5.00;4.50;;;14.40;99.90;;;;;;5006473;28;20935;-64
2023/07/23 04:01:49;;;;;;;4.80;4.20;;;14.30;99.90;;;;;;5009903;28;20455;-65
2023/07/23 04:04:15;;;;;;;4.20;3.80;;;14.30;99.90;;;;;;5009559;28;20493;-65
2023/07/23 04:06:42;;;;;;;4.13;3.80;;;14.30;99.90;;;;;;5009119;28;20459;-64
2023/07/23 04:09:09;;;;;;;6.20;4.00;;;14.30;99.90;;;;;;5009650;28;20466;-65
2023/07/23 04:11:36;;;;;;;5.23;4.83;;;14.30;99.90;;;;;;5009534;28;20545;-65
2023/07/23 04:14:04;;;;;;;4.23;3.83;;;14.30;99.90;;;;;;5009737;28;20555;-64
2023/07/23 04:16:31;;;;;;;4.90;4.07;;;14.20;99.90;;;;;;5008962;28;20843;-65
2023/07/23 04:18:58;;;;;;;5.47;4.27;;;14.20;99.90;;;;;;5009605;28;20458;-63
2023/07/23 04:21:25;;;;;;;4.50;3.60;;;14.20;99.90;;;;;;5009328;28;20472;-64
2023/07/23 04:23:55;;;;;;;5.10;4.60;;;14.20;99.90;;;;;;5007674;28;20499;-64
2023/07/23 04:26:22;;;;;;;4.90;4.50;;;14.20;99.90;;;;;;5008563;28;20463;-64
2023/07/23 04:28:50;;;;;;;4.03;3.73;;;14.20;99.90;;;;;;5009105;28;20462;-64
2023/07/23 04:31:18;;;;;;;4.27;3.70;;;14.20;99.90;;;;;;5009329;28;20461;-65
2023/07/23 04:33:46;;;;;;;5.17;4.73;;;14.30;99.90;;;;;;5009398;28;20470;-64
2023/07/23 04:36:14;;;;;;;5.13;3.80;;;14.30;99.90;;;;;;5008763;28;20461;-65
2023/07/23 04:38:41;;;;;;;4.70;4.07;;;14.30;99.90;;;;;;5009332;28;20478;-64
2023/07/23 04:41:08;;;;;;;3.90;3.60;;;14.30;99.90;;;;;;5009446;28;20581;-65
2023/07/23 04:43:36;;;;;;;4.20;3.80;;;14.40;99.90;;;;;;5009214;28;21198;-64
2023/07/23 04:46:04;;;;;;;4.33;4.03;;;14.40;99.90;;;;;;5008313;28;20466;-63
2023/07/23 04:48:32;;;;;;;4.13;3.73;;;14.40;99.90;;;;;;5009038;28;20497;-64
2023/07/23 04:51:01;;;;;;;6.00;5.60;;;14.40;99.90;;;;;;5009077;28;20552;-64
2023/07/23 04:53:27;;;;;;;5.63;5.00;;;14.40;99.90;;;;;;5009023;28;20558;-64
2023/07/23 04:55:55;;;;;;;9.13;4.70;;;14.50;99.90;;;;;;4989550;28;20530;-64
2023/07/23 04:58:23;;;;;;;4.50;4.17;;;14.50;99.90;;;;;;4988447;28;20461;-64
2023/07/23 05:00:50;;;;;;;4.50;4.10;;;14.50;99.90;;;;;;4989079;28;20471;-64
2023/07/23 05:03:17;;;;;;;5.10;4.70;;;14.60;99.90;;;;;;4988924;28;20495;-63
2023/07/23 05:05:47;;;;;;;4.60;4.20;;;14.70;99.90;;;;;;4989036;28;21283;-65
2023/07/23 05:08:14;;;;;;;4.77;4.00;;;14.70;99.90;;;;;;4988654;28;20466;-64
2023/07/23 05:10:41;;;;;;;4.10;3.80;;;14.80;99.90;;;;;;4989213;28;20459;-64
2023/07/23 05:13:08;;;;;;;3.90;3.67;;;14.90;99.90;;;;;;4988926;28;20588;-64
2023/07/23 05:15:35;;;;;;;4.40;3.60;;;15.00;99.90;;;;;;4989259;28;20548;-65
2023/07/23 05:18:02;;;;;;;3.97;3.63;;;15.00;99.90;;;;;;4988278;28;20458;-65
2023/07/23 05:20:29;;;;;;;5.17;4.77;;;15.10;99.90;;;;;;4988926;28;20452;-65
2023/07/23 05:22:57;;;;;;;4.60;4.27;;;15.20;99.90;;;;;;4986867;28;20499;-65
2023/07/23 05:25:24;;;;;;;4.20;3.90;;;15.30;99.90;;;;;;4988673;28;20541;-64
2023/07/23 05:27:51;;;;;;;4.90;4.47;;;15.40;99.90;;;;;;4987919;28;20456;-65
2023/07/23 05:30:18;;;;;;;5.20;4.20;;;15.40;99.90;;;;;;4988799;28;20464;-65
2023/07/23 05:32:45;;;;;;;4.93;4.30;;;15.50;99.90;;;;;;4988560;28;20484;-65
2023/07/23 05:35:13;;;;;;;5.47;4.23;;;15.70;99.90;;;;;;4988713;28;20464;-65
2023/07/23 05:37:40;;;;;;;4.90;3.70;;;15.70;99.90;;;;;;4988309;28;20452;-65
2023/07/23 05:40:09;;;;;;;4.20;3.90;;;15.90;99.90;;;;;;4988953;28;20577;-65
2023/07/23 05:42:36;;;;;;;3.90;3.63;;;16.00;99.90;;;;;;4988707;28;20913;-65
2023/07/23 05:45:04;;;;;;;4.33;3.50;;;16.10;99.90;;;;;;4988730;28;20540;-65
2023/07/23 05:47:31;;;;;;;7.20;5.10;;;16.30;99.90;;;;;;4987671;28;20962;-65
2023/07/23 05:49:57;;;;;;;4.10;3.80;;;16.40;99.90;;;;;;4988255;28;21093;-65
2023/07/23 05:52:25;;;;;;;4.60;4.10;;;16.60;99.90;;;;;;4988596;28;20915;-65
2023/07/23 05:54:52;;;;;;;6.97;5.20;;;16.70;99.90;;;;;;4988539;28;20464;-65
2023/07/23 05:57:20;;;;;;;4.00;3.70;;;16.80;99.90;;;;;;4987755;28;20851;-64
2023/07/23 05:59:47;;;;;;;4.60;4.20;;;16.90;99.90;;;;;;4988486;28;20458;-64
2023/07/23 06:02:13;;;;;;;4.50;4.10;;;17.10;99.90;;;;;;4988330;28;20564;-65
2023/07/23 06:04:41;;;;;;;4.27;3.97;;;17.20;99.90;;;;;;4988412;28;20492;-64
2023/07/23 06:07:08;;;;;;;4.17;3.87;;;17.30;99.90;;;;;;4987557;28;20560;-64
2023/07/23 06:09:35;;;;;;;4.00;3.70;;;17.40;99.90;;;;;;4989931;28;20470;-65
2023/07/23 06:12:02;;;;;;;4.03;3.70;;;17.50;99.90;;;;;;4992408;28;20545;-65
2023/07/23 06:14:30;;;;;;;3.37;3.13;;;17.60;99.90;;;;;;4992101;28;20539;-64
2023/07/23 06:16:57;;;;;;;3.73;3.43;;;17.70;99.90;;;;;;4991556;28;20557;-64
2023/07/23 06:19:24;;;;;;;3.90;3.60;;;17.80;99.90;;;;;;4992441;28;20487;-65
2023/07/23 06:21:51;;;;;;;3.87;3.47;;;18.00;99.90;;;;;;4992055;28;20473;-65
2023/07/23 06:24:18;;;;;;;4.53;4.23;;;18.10;99.90;;;;;;4990396;28;20497;-65
2023/07/23 06:26:44;;;;;;;3.97;3.67;;;18.20;99.90;;;;;;4991313;28;20461;-65
2023/07/23 06:29:11;;;;;;;3.97;3.67;;;18.50;99.90;;;;;;4992005;28;20457;-65
2023/07/23 06:31:39;;;;;;;5.23;3.63;;;18.70;99.90;;;;;;4992271;28;20450;-65
2023/07/23 06:34:07;;;;;;;3.13;2.90;;;18.90;99.90;;;;;;4991932;28;20471;-65
2023/07/23 06:36:34;;;;;;;3.50;3.23;;;19.20;99.90;;;;;;4991311;28;20474;-65
2023/07/23 06:39:01;;;;;;;4.37;4.07;;;19.50;99.90;;;;;;4991926;28;20546;-65
2023/07/23 06:41:28;;;;;;;3.93;3.53;;;19.80;99.90;;;;;;4991522;28;20480;-65
2023/07/23 06:43:55;;;;;;;6.00;3.83;;;20.00;99.70;;;;;;4991588;28;20498;-64
2023/07/23 06:46:22;;;;;;;3.10;2.90;;;20.30;99.90;;;;;;4991255;28;20454;-65
2023/07/23 06:48:50;;;;;;;3.90;3.33;;;20.50;99.00;;;;;;4986046;28;20458;-65
2023/07/23 06:51:17;;;;;;;3.53;3.20;;;20.70;98.00;;;;;;4991870;28;20454;-66
2023/07/23 06:53:44;;;;;;;5.83;3.37;;;20.80;97.70;;;;;;4991711;28;20482;-65
2023/07/23 06:56:12;;;;;;;4.20;3.80;;;20.90;96.20;;;;;;4988969;28;20459;-65
2023/07/23 06:58:40;;;;;;;3.17;2.87;;;20.90;97.50;;;;;;4991868;28;21083;-66
2023/07/23 07:01:09;;;;;;;4.00;3.70;;;21.00;96.60;;;;;;4991642;28;20461;-64
2023/07/23 07:03:36;;;;;;;8.10;4.00;;;21.10;97.30;;;;;;4991388;28;20499;-64
2023/07/23 07:06:05;;;;;;;6.93;4.00;;;21.20;95.80;;;;;;4990628;28;20460;-66
2023/07/23 07:08:32;;;;;;;3.83;3.37;;;21.20;96.60;;;;;;4991272;28;20464;-66
2023/07/23 07:10:59;;;;;;;4.07;3.77;;;21.40;97.40;;;;;;4991102;28;20547;-66
2023/07/23 07:13:27;;;;;;;3.70;3.23;;;21.50;96.10;;;;;;4991110;28;20569;-66
2023/07/23 07:15:54;;;;;;;4.50;3.40;;;21.60;95.90;;;;;;4990588;28;20457;-66
2023/07/23 07:18:20;;;;;;;5.27;3.70;;;21.70;95.10;;;;;;4990872;28;20483;-66
2023/07/23 07:20:54;;;;;;;4.03;3.73;;;22.00;95.50;;;;;;4989464;28;20455;-65
2023/07/23 07:23:22;;;;;;;3.80;3.50;;;22.30;94.90;;;;;;4990377;28;20567;-66
2023/07/23 07:25:49;;;;;;;3.30;3.10;;;22.50;94.80;;;;;;4990952;28;20451;-66
2023/07/23 07:28:16;;;;;;;3.47;3.17;;;22.70;95.10;;;;;;4992754;28;20449;-66
2023/07/23 07:30:43;;;;;;;2.97;2.80;;;23.00;94.60;;;;;;4997728;28;20521;-66
2023/07/23 07:33:10;;;;;;;3.90;3.50;;;23.20;93.60;;;;;;4997597;28;20474;-66
2023/07/23 07:35:37;;;;;;;3.53;3.20;;;23.50;93.50;;;;;;5002091;28;20446;-67
2023/07/23 07:38:03;;;;;;;3.50;3.20;;;23.70;91.00;;;;;;5009446;28;20458;-66
2023/07/23 07:40:32;;;;;;;3.30;3.00;;;23.80;92.00;;;;;;4985665;28;21009;-65
2023/07/23 07:42:59;;;;;;;3.23;3.03;;;23.90;90.40;;;;;;4970933;28;20472;-67
2023/07/23 07:45:26;;;;;;;3.17;2.87;;;23.90;90.50;;;;;;4970982;28;21097;-67
2023/07/23 07:47:52;;;;;;;3.40;3.10;;;24.00;91.90;;;;;;4970478;28;20460;-66
2023/07/23 07:50:19;;;;;;;3.60;3.30;;;24.10;91.20;;;;;;4970184;28;20547;-65
2023/07/23 07:52:47;;;;;;;2.13;1.93;;;24.20;91.30;;;;;;4970926;28;20566;-67
2023/07/23 07:55:14;;;;;;;1.90;1.80;;;24.30;90.70;;;;;;4971296;28;20992;-67
2023/07/23 07:57:44;;;;;;;1.80;1.70;;;24.50;89.40;;;;;;4970612;28;20542;-67
2023/07/23 08:00:11;;;;;;;2.10;1.80;;;24.50;88.90;;;;;;4971465;28;21305;-66
2023/07/23 08:02:39;;;;;;;2.10;1.57;;;24.60;90.20;;;;;;4970953;28;20481;-67
2023/07/23 08:05:07;;;;;;;1.57;1.47;;;24.60;90.40;;;;;;4969302;28;20493;-67
2023/07/23 08:07:35;;;;;;;2.53;1.50;;;24.80;90.00;;;;;;4988878;28;21011;-67
2023/07/23 08:10:03;;;;;;;1.60;1.50;;;24.90;90.50;;;;;;4989641;28;20540;-67
2023/07/23 08:12:30;;;;;;;1.77;1.40;;;24.90;88.40;;;;;;4990273;28;20486;-66
2023/07/23 08:15:00;;;;;;;1.87;1.77;;;25.10;89.40;;;;;;5001560;28;20454;-66
2023/07/23 08:17:27;;;;;;;1.73;1.63;;;25.10;86.60;;;;;;4992432;28;20458;-67
2023/07/23 08:19:54;;;;;;;2.33;2.20;;;25.20;87.30;;;;;;4986009;28;20466;-68
2023/07/23 08:22:22;;;;;;;1.67;1.50;;;25.40;87.30;;;;;;4993132;28;20562;-67
2023/07/23 08:24:49;;;;;;;2.07;1.87;;;25.40;85.30;;;;;;4993215;28;20501;-66
2023/07/23 08:27:22;;;;;;;1.83;1.73;;;25.40;86.00;;;;;;5000192;28;20468;-66
2023/07/23 08:29:49;;;;;;;2.00;1.90;;;25.30;84.60;;;;;;4993322;28;20459;-66
2023/07/23 08:32:20;;;;;;;2.50;1.77;;;25.50;84.60;;;;;;4998404;28;20470;-66
2023/07/23 08:34:47;;;;;;;1.50;1.40;;;25.60;83.70;;;;;;4999771;28;20460;-67
2023/07/23 08:37:15;;;;;;;1.60;1.50;;;25.70;84.10;;;;;;4999528;28;20469;-66
2023/07/23 08:39:42;;;;;;;2.10;1.80;;;25.70;85.60;;;;;;5004201;28;20544;-65
2023/07/23 08:42:24;;;;;;;1.90;1.80;;;25.60;83.50;;;;;;4995010;28;20456;-66
2023/07/23 08:45:18;;;;;;;1.43;1.33;;;25.70;85.90;;;;;;5000621;28;20495;-67
2023/07/23 08:47:48;;;;;;;1.77;1.67;;;25.70;85.20;;;;;;4989952;28;20843;-67
2023/07/23 08:50:15;;;;;;;1.30;1.20;;;25.70;82.80;;;;;;4996320;28;20544;-66
2023/07/23 08:52:43;;;;;;;1.67;1.57;;;25.80;82.10;;;;;;4997651;28;20485;-68
2023/07/23 08:55:11;;;;;;;2.00;1.80;;;25.90;80.10;;;;;;5000594;28;20452;-67
2023/07/23 08:57:39;;;;;;;2.40;1.77;;;26.00;82.10;;;;;;4997052;28;21053;-64
2023/07/23 09:00:09;;;;;;;1.57;1.47;;;26.10;80.30;;;;;;4996036;28;20532;-65
2023/07/23 09:02:40;;;;;;;1.43;1.33;;;26.00;77.50;;;;;;4989638;28;20478;-66
2023/07/23 09:05:09;;;;;;;2.50;1.57;;;26.00;77.80;;;;;;4998868;28;20504;-66
2023/07/23 09:07:36;;;;;;;1.50;1.40;;;25.90;80.90;;;;;;4998558;28;20466;-66
2023/07/23 09:10:03;;;;;;;2.20;2.00;;;25.80;80.40;;;;;;5000261;28;20490;-66
2023/07/23 09:12:30;;;;;;;2.10;2.00;;;25.90;78.90;;;;;;4998207;28;21009;-65
2023/07/23 09:15:04;;;;;;;1.57;1.47;;;25.80;80.10;;;;;;5002429;28;20460;-66
2023/07/23 09:17:31;;;;;;;1.80;1.70;;;25.70;78.70;;;;;;4997102;28;20472;-66
2023/07/23 09:19:59;;;;;;;2.10;2.00;;;25.70;81.30;;;;;;5000340;28;20456;-65
2023/07/23 09:22:31;;;;;;;2.10;1.67;;;25.70;81.20;;;;;;4999696;28;20494;-65
2023/07/23 09:25:00;;;;;;;1.43;1.40;;;25.60;82.10;;;;;;4996675;28;20489;-67
2023/07/23 09:27:35;;;;;;;2.83;1.70;;;25.50;82.00;;;;;;4995797;28;21221;-65
2023/07/23 09:30:03;;;;;;;2.63;1.40;;;25.40;81.50;;;;;;4999363;28;20514;-67
2023/07/23 09:32:30;;;;;;;1.20;1.20;;;25.20;81.80;;;;;;4997209;28;20476;-67
2023/07/23 09:34:58;;;;;;;3.27;1.43;;;25.20;81.20;;;;;;5000058;28;20999;-66
2023/07/23 09:37:29;;;;;;;1.70;1.60;;;25.10;81.50;;;;;;5007028;28;20458;-65
2023/07/23 09:39:56;;;;;;;1.77;1.67;;;25.10;83.00;;;;;;5003756;28;20479;-65
2023/07/23 09:42:23;;;;;;;1.67;1.57;;;25.10;82.60;;;;;;4989770;28;20455;-65
2023/07/23 09:44:50;;;;;;;1.60;1.50;;;25.00;81.60;;;;;;5001356;28;20491;-66
2023/07/23 09:47:23;;;;;;;4.10;2.30;;;24.90;82.10;;;;;;4998905;28;20866;-66
2023/07/23 09:49:52;;;;;;;1.40;1.30;;;24.80;83.00;;;;;;5007925;28;20464;-66
2023/07/23 09:52:22;;;;;;;2.17;1.73;;;24.70;85.10;;;;;;5007034;28;20886;-66
2023/07/23 09:54:52;;;;;;;1.80;1.43;;;24.60;82.10;;;;;;5008080;28;20457;-66
2023/07/23 09:57:20;;;;;;;1.60;1.27;;;24.40;80.50;;;;;;5006982;28;20477;-66
2023/07/23 09:59:48;;;;;;;1.57;1.30;;;24.30;83.00;;;;;;5007596;28;20459;-67
2023/07/23 10:02:17;;;;;;;1.80;1.50;;;24.30;82.40;;;;;;4997948;28;20539;-66
2023/07/23 10:04:45;;;;;;;1.77;1.67;;;24.30;84.30;;;;;;5006387;28;20852;-65
2023/07/23 10:07:12;;;;;;;2.27;2.07;;;24.30;81.70;;;;;;5006696;28;20463;-66
2023/07/23 10:09:39;;;;;;;1.60;1.50;;;24.30;83.00;;;;;;5007305;28;20540;-65
2023/07/23 10:12:08;;;;;;;1.50;1.40;;;24.40;83.10;;;;;;5007233;28;20805;-66
2023/07/23 10:14:35;;;;;;;2.00;1.40;;;24.50;81.60;;;;;;5007012;28;20451;-65
2023/07/23 10:17:03;;;;;;;2.50;2.00;;;24.60;82.40;;;;;;5006849;28;20837;-66
2023/07/23 10:19:30;;;;;;;1.93;1.83;;;24.60;83.00;;;;;;4999823;28;20466;-65
2023/07/23 10:21:57;;;;;;;1.50;1.40;;;24.80;80.30;;;;;;4994573;28;20974;-66
2023/07/23 10:24:38;;;;;;;2.17;1.90;;;24.80;81.20;;;;;;4995531;28;20494;-67
2023/07/23 10:27:13;;;;;;;2.03;1.90;;;24.80;78.90;;;;;;4967823;28;21035;-65
2023/07/23 10:29:42;;;;;;;2.27;2.17;;;24.70;77.50;;;;;;4968593;28;20848;-66
2023/07/23 10:32:26;;;;;;;2.50;2.03;;;24.70;79.10;;;;;;4968090;28;20452;-66
2023/07/23 10:34:53;;;;;;;4.73;2.33;;;24.70;81.90;;;;;;4968375;28;20828;-66
2023/07/23 10:37:21;;;;;;;5.10;2.20;;;24.80;79.80;;;;;;4967621;28;20560;-65
2023/07/23 10:39:50;;;;;;;1.63;1.53;;;24.80;80.00;;;;;;4968255;28;20832;-65
2023/07/23 10:42:42;;;;;;;2.23;2.07;;;24.90;79.40;;;;;;4973042;28;20463;-66
2023/07/23 10:45:24;;;;;;;1.77;1.67;;;25.10;82.40;;;;;;4979218;28;20496;-66
2023/07/23 10:47:52;;;;;;;1.47;1.30;;;25.10;79.40;;;;;;4986711;28;20461;-67
2023/07/23 10:50:20;;;;;;;1.90;1.80;;;25.40;79.20;;;;;;4987877;28;20495;-66
2023/07/23 10:52:49;;;;;;;2.00;1.90;;;25.50;78.80;;;;;;4987544;28;20574;-66
2023/07/23 10:55:33;;;;;;;2.07;1.70;;;25.70;80.70;;;;;;4987399;28;20458;-66
2023/07/23 10:58:05;;;;;;;1.43;1.27;;;25.90;77.40;;;;;;4989414;28;20461;-65
2023/07/23 11:00:32;;;;;;;2.10;2.00;;;26.10;75.70;;;;;;4991091;28;20451;-66
2023/07/23 11:02:59;;;;;;;2.00;1.80;;;26.20;73.50;;;;;;4990674;28;20484;-65
2023/07/23 11:05:25;;;;;;;2.30;2.03;;;26.20;72.90;;;;;;4990666;28;20679;-66
2023/07/23 11:08:18;;;;;;;3.47;1.93;;;26.20;72.10;;;;;;4990216;28;20542;-66
2023/07/23 11:10:48;;;;;;;2.43;2.30;;;26.20;75.20;;;;;;4991047;28;20474;-66
2023/07/23 11:13:16;;;;;;;2.63;2.00;;;26.30;75.70;;;;;;4990448;28;20486;-66
2023/07/23 11:15:44;;;;;;;2.50;1.87;;;26.20;71.60;;;;;;4990747;28;20535;-67
2023/07/23 11:18:11;;;;;;;2.33;2.13;;;26.20;72.50;;;;;;4990205;28;20553;-66
2023/07/23 11:20:38;;;;;;;2.10;1.80;;;26.00;72.80;;;;;;4988886;28;20461;-66
2023/07/23 11:23:07;;;;;;;2.00;1.90;;;25.90;72.40;;;;;;4990621;28;20485;-66
2023/07/23 11:25:34;;;;;;;2.23;2.03;;;25.90;77.30;;;;;;4990177;28;20496;-67
2023/07/23 11:28:02;;;;;;;1.90;1.80;;;26.00;76.90;;;;;;4990103;28;20843;-67
2023/07/23 11:30:31;;;;;;;3.43;1.70;;;26.10;73.50;;;;;;4990359;28;20608;-66
2023/07/23 11:32:59;;;;;;;2.37;1.87;;;26.20;76.00;;;;;;4990512;28;20490;-66
2023/07/23 11:35:26;;;;;;;2.50;2.30;;;26.20;74.00;;;;;;4990370;28;20455;-65
2023/07/23 11:37:53;;;;;;;1.97;1.87;;;26.30;74.50;;;;;;4989636;28;20463;-66
2023/07/23 11:40:21;;;;;;;2.50;2.27;;;26.20;73.80;;;;;;4989695;28;20463;-65
2023/07/23 11:42:48;;;;;;;2.73;2.53;;;26.20;74.20;;;;;;5000657;28;21024;-66
2023/07/23 11:45:15;;;;;;;2.10;2.00;;;26.10;73.70;;;;;;5009181;28;20494;-66
2023/07/23 11:47:52;;;;;;;2.50;2.30;;;26.10;74.50;;;;;;5009149;28;20458;-67
2023/07/23 11:50:20;;;;;;;2.17;2.07;;;26.20;75.20;;;;;;5009783;28;20549;-67
2023/07/23 11:52:48;;;;;;;2.87;2.17;;;26.20;73.60;;;;;;5009596;28;20579;-66
2023/07/23 11:55:21;;;;;;;2.40;2.20;;;26.20;74.20;;;;;;5009510;28;20976;-66
2023/07/23 11:57:52;;;;;;;2.60;1.50;;;26.10;72.00;;;;;;5008674;28;20451;-65
2023/07/23 12:00:27;;;;;;;2.13;2.03;;;26.10;70.60;;;;;;5009470;28;20464;-66
2023/07/23 12:02:56;;;;;;;2.60;2.37;;;26.00;71.70;;;;;;5008942;28;20474;-66
2023/07/23 12:05:23;;;;;;;2.23;2.00;;;26.10;72.50;;;;;;5009136;28;20493;-66
2023/07/23 12:07:52;;;;;;;2.60;2.10;;;26.30;74.60;;;;;;5008412;28;20961;-66
2023/07/23 12:10:19;;;;;;;2.00;1.90;;;26.30;71.70;;;;;;5001950;28;20958;-66
2023/07/23 12:12:46;;;;;;;2.37;2.17;;;26.40;73.20;;;;;;4998629;28;20470;-66
2023/07/23 12:15:14;;;;;;;2.40;2.20;;;26.60;74.00;;;;;;4997335;28;20538;-66
2023/07/23 12:17:42;;;;;;;2.57;2.37;;;26.80;72.10;;;;;;5005397;28;20962;-66
2023/07/23 12:20:15;;;;;;;2.33;2.20;;;27.10;71.20;;;;;;5008823;28;20552;-65
2023/07/23 12:22:51;;;;;;;1.93;1.83;;;27.20;68.80;;;;;;5002301;28;20861;-66
2023/07/23 12:25:18;;;;;;;2.83;2.40;;;27.20;70.10;;;;;;5000523;28;21053;-67
2023/07/23 12:27:45;;;;;;;3.10;1.90;;;27.40;68.50;;;;;;5008067;28;20453;-66
2023/07/23 12:30:13;;;;;;;2.57;2.37;;;27.50;68.80;;;;;;5008759;28;20458;-66
2023/07/23 12:32:40;;;;;;;2.50;2.40;;;27.50;66.70;;;;;;5008773;28;20472;-67
2023/07/23 12:35:08;;;;;;;2.63;2.47;;;27.60;66.00;;;;;;5008899;28;20491;-66
2023/07/23 12:37:36;;;;;;;2.77;2.57;;;27.60;67.60;;;;;;5008292;28;21289;-67
2023/07/23 12:40:04;;;;;;;2.50;2.30;;;27.50;68.00;;;;;;5009114;28;20463;-66
2023/07/23 12:42:31;;;;;;;2.53;2.33;;;27.50;67.80;;;;;;5008695;28;20518;-66
2023/07/23 12:44:59;;;;;;;2.40;2.20;;;27.60;67.70;;;;;;5001278;28;20451;-66
2023/07/23 12:47:26;;;;;;;2.50;2.30;;;27.70;64.40;;;;;;4999951;28;20479;-66
2023/07/23 12:49:56;;;;;;;2.70;2.27;;;27.80;65.40;;;;;;5008301;28;20535;-67
2023/07/23 12:52:23;;;;;;;2.23;1.90;;;28.00;64.20;;;;;;5008164;28;20930;-65